Time;durP1;ratioP1;P1;durP2;ratioP2;P2;SDS_P1;SDS_P2;PMS_P1;PMS_P2;Temp;Humidity;BMP_temperature;BMP_pressure;BME280_temperature;BME280_humidity;BME280_pressure;Samples;Min_cycle;Max_cycle;Signal;HPM_P1;HPM_P2
2023/02/11 00:01:18;;;;;;;47.72;27.75;;;;;;;4.76;100.00;102799.34;10105287;28;20092;-67
2023/02/11 00:06:15;;;;;;;51.08;31.05;;;;;;;4.77;100.00;102795.59;10095924;28;20476;-67
2023/02/11 00:11:14;;;;;;;53.88;28.30;;;;;;;4.74;100.00;102799.56;10106618;28;20051;-67
2023/02/11 00:16:17;;;;;;;41.92;27.13;;;;;;;4.72;100.00;102785.41;10106735;28;20054;-68
2023/02/11 00:21:16;;;;;;;41.63;28.05;;;;;;;4.73;100.00;102803.31;10103408;28;20051;-68
2023/02/11 00:26:19;;;;;;;54.35;30.98;;;;;;;4.62;100.00;102790.56;10103729;28;20145;-68
2023/02/11 00:31:16;;;;;;;;;;;;;;;4.61;100.00;102788.88;10111392;28;20504;-68
2023/02/11 00:36:17;;;;;;;44.90;33.83;;;;;;;4.60;100.00;102809.75;10107859;28;19944;-68
2023/02/11 00:41:16;;;;;;;51.67;32.93;;;;;;;4.60;100.00;102804.31;10109024;28;20046;-68
2023/02/11 00:46:13;;;;;;;47.70;30.73;;;;;;;4.54;100.00;102817.94;10099474;28;20050;-68
2023/02/11 00:51:10;;;;;;;54.28;29.85;;;;;;;4.51;100.00;102810.28;10108018;28;20047;-69
2023/02/11 00:56:07;;;;;;;58.05;33.90;;;;;;;4.49;100.00;102793.41;10098758;28;20078;-69
2023/02/11 01:01:03;;;;;;;52.05;32.97;;;;;;;4.48;100.00;102784.47;10109722;28;20051;-69
2023/02/11 01:06:00;;;;;;;55.00;35.42;;;;;;;4.46;100.00;102769.50;10108189;28;20501;-68
2023/02/11 01:11:03;;;;;;;59.17;34.50;;;;;;;4.49;100.00;102769.03;10104241;28;20051;-68
2023/02/11 01:16:00;;;;;;;61.90;35.47;;;;;;;4.55;100.00;102773.53;10102536;28;20070;-68
2023/02/11 01:20:56;;;;;;;60.95;37.05;;;;;;;4.60;100.00;102771.00;10102328;28;20047;-69
2023/02/11 01:25:53;;;;;;;55.38;37.53;;;;;;;4.58;100.00;102757.66;10109745;28;20050;-68
2023/02/11 01:30:50;;;;;;;69.32;37.08;;;;;;;4.62;100.00;102752.63;10101003;28;20097;-68
2023/02/11 01:35:46;;;;;;;53.83;34.50;;;;;;;4.64;100.00;102755.91;10114748;28;20101;-68
2023/02/11 01:40:55;;;;;;;63.25;37.33;;;;;;;4.67;100.00;102760.06;10107823;28;20058;-68
2023/02/11 01:45:57;;;;;;;69.15;38.35;;;;;;;4.66;100.00;102742.97;10109826;28;20051;-69
2023/02/11 01:51:00;;;;;;;51.83;33.08;;;;;;;4.68;100.00;102751.69;10104791;28;20513;-70
2023/02/11 02:01:17;;;;;;;63.72;36.95;;;;;;;4.66;100.00;102726.72;10109843;28;20464;-67
2023/02/11 02:06:18;;;;;;;56.70;33.65;;;;;;;4.62;100.00;102725.53;10113243;28;20050;-67
2023/02/11 02:11:14;;;;;;;55.58;33.50;;;;;;;4.67;100.00;102727.56;10105189;28;20047;-67
2023/02/11 02:16:14;;;;;;;63.03;36.90;;;;;;;4.65;100.00;102741.31;10108419;28;20137;-67
2023/02/11 02:21:32;;;;;;;59.88;32.90;;;;;;;4.68;100.00;102730.00;10101350;28;20078;-67
2023/02/11 02:26:52;;;;;;;51.20;34.30;;;;;;;4.71;100.00;102717.88;10113353;28;20568;-67
2023/02/11 02:32:02;;;;;;;61.78;35.72;;;;;;;4.74;100.00;102712.84;10101320;28;20513;-66
2023/02/11 02:37:13;;;;;;;54.33;33.83;;;;;;;4.79;100.00;102712.16;10109253;28;20043;-69
2023/02/11 02:42:11;;;;;;;53.03;31.58;;;;;;;4.81;100.00;102686.47;10100542;28;20057;-69
2023/02/11 02:47:07;;;;;;;53.70;32.72;;;;;;;4.88;100.00;102696.41;10095440;28;20141;-69
2023/02/11 02:52:24;;;;;;;55.88;34.15;;;;;;;4.96;100.00;102699.59;10108143;28;20043;-69
2023/02/11 02:57:29;;;;;;;55.67;32.35;;;;;;;4.97;100.00;102693.13;10089160;28;20685;-67
2023/02/11 03:02:33;;;;;;;58.15;31.65;;;;;;;4.96;100.00;102693.34;10095112;28;20043;-68
2023/02/11 03:07:42;;;;;;;51.40;31.15;;;;;;;4.96;100.00;102696.06;10096395;28;20581;-68
2023/02/11 03:12:41;;;;;;;57.55;34.75;;;;;;;4.93;100.00;102693.81;10111377;28;20493;-68
2023/02/11 03:17:41;;;;;;;52.72;31.75;;;;;;;4.94;100.00;102690.03;10111249;28;20045;-69
2023/02/11 03:22:45;;;;;;;51.92;33.13;;;;;;;4.95;100.00;102694.44;10100016;28;20068;-68
2023/02/11 03:27:46;;;;;;;56.50;32.45;;;;;;;4.95;100.00;102680.88;10101231;28;20066;-68
2023/02/11 03:32:50;;;;;;;57.08;31.23;;;;;;;4.97;100.00;102684.19;10096539;28;20046;-68
2023/02/11 03:38:06;;;;;;;54.80;32.53;;;;;;;5.02;100.00;102677.00;10101319;28;20066;-68
2023/02/11 03:43:13;;;;;;;55.22;32.38;;;;;;;5.06;100.00;102658.38;10094165;28;20042;-69
2023/02/11 03:48:33;;;;;;;49.22;30.08;;;;;;;5.11;100.00;102661.22;10097718;28;20121;-68
2023/02/11 03:53:30;;;;;;;43.40;28.88;;;;;;;5.16;100.00;102645.06;10101086;28;20038;-68
2023/02/11 03:58:26;;;;;;;42.40;28.73;;;;;;;5.20;100.00;102635.41;10108351;28;20051;-67
2023/02/11 04:03:22;;;;;;;39.53;27.88;;;;;;;5.32;100.00;102651.69;10101808;28;20039;-67
2023/02/11 04:08:19;;;;;;;42.17;25.90;;;;;;;5.40;100.00;102650.50;10100091;28;20093;-68
2023/02/11 04:13:16;;;;;;;43.33;28.75;;;;;;;5.48;100.00;102650.16;10108387;28;20551;-68
2023/02/11 04:18:12;;;;;;;41.30;27.05;;;;;;;5.52;100.00;102670.31;10106627;28;20125;-68
2023/02/11 04:23:09;;;;;;;45.70;27.77;;;;;;;5.59;100.00;102665.63;10096975;28;20141;-68
2023/02/11 04:28:05;;;;;;;45.30;30.95;;;;;;;5.65;100.00;102664.66;10105752;28;20098;-68
2023/02/11 04:33:02;;;;;;;38.25;27.02;;;;;;;5.69;100.00;102659.59;10099531;28;20047;-68
2023/02/11 04:37:58;;;;;;;45.83;29.92;;;;;;;5.80;100.00;102671.47;10096760;28;20157;-68
2023/02/11 04:42:55;;;;;;;45.92;28.08;;;;;;;5.80;100.00;102660.63;10108655;28;20083;-68
2023/02/11 04:47:51;;;;;;;40.97;26.42;;;;;;;5.81;100.00;102673.97;10099773;28;20130;-68
2023/02/11 04:52:48;;;;;;;34.47;26.38;;;;;;;5.85;100.00;102658.03;10100776;28;20061;-67
2023/02/11 04:57:44;;;;;;;39.63;25.75;;;;;;;5.88;100.00;102657.56;10099133;28;20051;-67
2023/02/11 05:02:41;;;;;;;38.45;27.70;;;;;;;5.92;100.00;102672.31;10108103;28;20043;-66
2023/02/11 05:07:37;;;;;;;38.88;26.48;;;;;;;5.93;100.00;102675.84;10096679;28;20509;-67
2023/02/11 05:12:34;;;;;;;39.25;26.50;;;;;;;5.87;100.00;102683.03;10102721;28;20158;-69
2023/02/11 05:17:30;;;;;;;38.83;27.98;;;;;;;5.82;100.00;102696.50;10106515;28;20572;-69
2023/02/11 05:22:26;;;;;;;38.05;26.30;;;;;;;5.76;100.00;102676.56;10108703;28;20047;-69
2023/02/11 05:27:23;;;;;;;39.63;27.13;;;;;;;5.74;100.00;102675.16;10108975;28;20662;-66
2023/02/11 05:32:19;;;;;;;52.13;28.00;;;;;;;5.73;100.00;102666.19;10109089;28;20039;-66
2023/02/11 05:37:16;;;;;;;38.78;27.10;;;;;;;5.76;100.00;102664.91;10099978;28;20078;-67
2023/02/11 05:42:13;;;;;;;41.50;27.45;;;;;;;5.72;100.00;102667.25;10111794;28;20067;-69
2023/02/11 05:47:09;;;;;;;36.72;25.77;;;;;;;5.78;100.00;102651.88;10106294;28;20047;-68
2023/02/11 05:52:05;;;;;;;34.30;25.90;;;;;;;5.81;100.00;102640.56;10104204;28;20055;-68
2023/02/11 05:57:02;;;;;;;42.60;25.45;;;;;;;5.84;100.00;102640.91;10106286;28;20055;-68
2023/02/11 06:01:59;;;;;;;39.13;28.63;;;;;;;5.88;100.00;102652.13;10113199;28;20062;-69
2023/02/11 06:06:55;;;;;;;38.65;28.15;;;;;;;5.89;100.00;102653.75;10103500;28;20062;-69
2023/02/11 06:11:52;;;;;;;36.85;28.38;;;;;;;5.94;100.00;102639.47;10108080;28;20042;-67
2023/02/11 06:16:48;;;;;;;41.53;29.02;;;;;;;5.93;100.00;102630.50;10106786;28;20047;-66
2023/02/11 06:21:45;;;;;;;40.63;27.15;;;;;;;5.94;100.00;102610.50;10108253;28;20063;-67
2023/02/11 06:26:41;;;;;;;37.58;29.02;;;;;;;5.97;100.00;102639.88;10104869;28;20125;-68
2023/02/11 06:31:39;;;;;;;30.77;25.80;;;;;;;6.00;100.00;102658.38;10105778;28;20086;-68
2023/02/11 06:36:39;;;;;;;35.20;27.42;;;;;;;6.04;100.00;102662.28;10100818;28;20043;-68
2023/02/11 06:41:36;;;;;;;41.80;29.05;;;;;;;6.10;100.00;102661.31;10102113;28;20496;-68
2023/02/11 06:46:33;;;;;;;36.35;29.40;;;;;;;6.08;100.00;102668.88;10104006;28;20078;-68
2023/02/11 06:51:29;;;;;;;35.58;29.90;;;;;;;6.17;100.00;102671.22;10102893;28;20105;-67
2023/02/11 06:56:26;;;;;;;32.33;25.65;;;;;;;6.08;100.00;102679.75;10103443;28;20487;-68
2023/02/11 07:01:24;;;;;;;33.70;26.38;;;;;;;6.11;100.00;102701.00;10090693;28;20478;-68
2023/02/11 07:06:24;;;;;;;34.33;24.90;;;;;;;6.06;100.00;102698.16;10109352;28;20057;-68
2023/02/11 07:11:24;;;;;;;31.08;24.60;;;;;;;6.04;100.00;102696.75;10110848;28;20081;-68
2023/02/11 07:16:20;;;;;;;28.95;23.75;;;;;;;6.09;100.00;102711.25;10102512;28;20067;-68
2023/02/11 07:21:19;;;;;;;30.42;22.50;;;;;;;6.08;100.00;102697.91;10107612;28;20589;-68
2023/02/11 07:26:18;;;;;;;31.88;24.48;;;;;;;6.13;100.00;102702.63;10100993;28;20520;-69
2023/02/11 07:31:21;;;;;;;27.65;22.95;;;;;;;6.11;100.00;102702.88;10100406;28;20043;-68
2023/02/11 07:36:18;;;;;;;34.97;26.27;;;;;;;6.11;100.00;102701.00;10090621;28;20045;-69
2023/02/11 07:41:19;;;;;;;37.78;27.42;;;;;;;6.16;100.00;102696.75;10093036;28;20053;-68
2023/02/11 07:46:22;;;;;;;37.40;28.52;;;;;;;6.16;100.00;102711.13;10093108;28;20043;-68
2023/02/11 07:51:21;;;;;;;47.83;31.05;;;;;;;6.18;100.00;102732.63;10100162;28;20039;-68
2023/02/11 07:56:19;;;;;;;38.03;28.40;;;;;;;6.20;100.00;102752.25;10098709;28;20074;-68
2023/02/11 08:01:21;;;;;;;35.42;27.38;;;;;;;6.23;100.00;102752.56;10097715;28;20051;-68
2023/02/11 08:06:19;;;;;;;39.20;27.42;;;;;;;6.23;100.00;102752.56;10097404;28;20047;-67
2023/02/11 08:11:22;;;;;;;36.80;25.60;;;;;;;6.26;100.00;102741.22;10093784;28;20050;-69
2023/02/11 08:16:21;;;;;;;;;;;;;;;6.26;100.00;102749.38;10086784;28;20058;-67
2023/02/11 08:21:19;;;;;;;33.78;22.45;;;;;;;6.26;100.00;102745.84;10087411;28;20289;-68
2023/02/11 08:26:18;;;;;;;38.15;25.58;;;;;;;6.28;100.00;102760.00;10103138;28;20057;-66
2023/02/11 08:31:19;;;;;;;37.08;24.75;;;;;;;6.37;100.00;102769.44;10101867;28;20047;-66
2023/02/11 08:36:18;;;;;;;32.95;24.15;;;;;;;6.45;100.00;102777.25;10091737;28;20109;-67
2023/02/11 08:41:16;;;;;;;36.17;25.35;;;;;;;6.46;100.00;102797.09;10099353;28;20046;-67
2023/02/11 08:46:16;;;;;;;30.05;21.92;;;;;;;6.39;100.00;102793.66;10094945;28;20046;-69
2023/02/11 08:51:18;;;;;;;30.20;24.13;;;;;;;6.44;100.00;102797.31;10093595;28;20078;-68
2023/02/11 08:56:16;;;;;;;41.00;25.33;;;;;;;6.44;100.00;102799.22;10085973;28;20047;-68
2023/02/11 09:01:21;;;;;;;40.85;24.27;;;;;;;6.40;100.00;102801.56;10083367;28;20047;-67
2023/02/11 09:06:21;;;;;;;31.20;21.75;;;;;;;6.42;100.00;102804.88;10085556;28;20050;-67
2023/02/11 09:11:19;;;;;;;36.17;25.27;;;;;;;6.44;100.00;102810.91;10073512;28;20671;-68
2023/02/11 09:16:19;;;;;;;26.77;23.77;;;;;;;6.53;100.00;102792.34;10086204;28;20078;-68
2023/02/11 09:21:17;;;;;;;36.25;27.17;;;;;;;6.51;100.00;102787.13;10097489;28;20140;-68
2023/02/11 09:26:17;;;;;;;29.58;23.50;;;;;;;6.55;100.00;102805.69;10097443;28;20053;-67
2023/02/11 09:31:16;;;;;;;32.63;23.90;;;;;;;6.59;100.00;102825.88;10078780;28;20560;-68
2023/02/11 09:36:16;;;;;;;31.73;23.48;;;;;;;6.61;100.00;102829.19;10092084;28;20070;-67
2023/02/11 09:41:22;;;;;;;28.50;20.48;;;;;;;6.62;100.00;102818.09;10088377;28;20050;-67
2023/02/11 09:46:21;;;;;;;31.67;23.63;;;;;;;6.78;100.00;102823.81;10086691;28;20082;-67
2023/02/11 09:51:19;;;;;;;37.28;23.42;;;;;;;6.90;100.00;102822.72;10083479;28;20213;-67
2023/02/11 09:56:16;;;;;;;30.00;21.48;;;;;;;6.89;100.00;102828.41;10102099;28;20039;-67
2023/02/11 10:01:38;;;;;;;29.73;19.38;;;;;;;7.02;100.00;102840.91;10089733;28;20162;-67
2023/02/11 10:06:45;;;;;;;27.77;21.13;;;;;;;6.99;100.00;102825.09;10092360;28;20105;-67
2023/02/11 10:12:02;;;;;;;34.17;20.50;;;;;;;6.98;100.00;102847.91;10101745;28;20742;-67
2023/02/11 10:17:26;;;;;;;31.45;20.17;;;;;;;7.06;100.00;102847.53;10100933;28;20042;-67
2023/02/11 10:22:40;;;;;;;32.30;19.63;;;;;;;7.03;100.00;102858.88;10087121;28;20161;-67
2023/02/11 10:27:36;;;;;;;31.92;20.63;;;;;;;7.03;100.00;102858.88;10087141;28;20510;-69
2023/02/11 10:32:46;;;;;;;29.55;20.52;;;;;;;7.00;100.00;102864.81;10100832;28;20055;-69
2023/02/11 10:37:43;;;;;;;25.35;18.63;;;;;;;6.98;100.00;102877.81;10104395;28;21352;-69
2023/02/11 10:42:45;;;;;;;32.53;18.55;;;;;;;6.95;100.00;102860.91;10100571;28;20473;-68
2023/02/11 10:47:43;;;;;;;22.83;16.98;;;;;;;6.98;100.00;102856.06;10111238;28;20111;-69
2023/02/11 10:52:39;;;;;;;34.08;17.92;;;;;;;7.03;100.00;102850.72;10097961;28;20552;-68
2023/02/11 10:57:43;;;;;;;25.17;16.38;;;;;;;7.04;100.00;102849.66;10100206;28;20089;-69
2023/02/11 11:02:43;;;;;;;23.60;16.42;;;;;;;7.01;100.00;102848.25;10087525;28;20158;-69
2023/02/11 11:07:54;;;;;;;19.35;14.82;;;;;;;6.92;100.00;102842.34;10101338;28;20079;-69
2023/02/11 11:12:51;;;;;;;19.70;15.27;;;;;;;6.99;100.00;102841.41;10111254;28;20058;-68
2023/02/11 11:18:09;;;;;;;25.80;14.35;;;;;;;6.92;100.00;102845.06;10093332;28;20078;-68
2023/02/11 11:23:21;;;;;;;21.98;15.50;;;;;;;6.91;100.00;102867.88;10099456;28;20527;-68
2023/02/11 11:28:22;;;;;;;26.83;16.70;;;;;;;6.98;100.00;102865.03;10102885;28;20047;-69
2023/02/11 11:33:27;;;;;;;22.70;16.23;;;;;;;7.03;100.00;102861.59;10103462;28;20039;-67
2023/02/11 11:38:24;;;;;;;25.45;16.33;;;;;;;7.07;100.00;102849.16;10103705;28;20054;-68
2023/02/11 11:43:20;;;;;;;19.25;16.08;;;;;;;7.12;100.00;102869.13;10096529;28;20043;-68
2023/02/11 11:48:27;;;;;;;22.02;13.90;;;;;;;7.06;100.00;102870.09;10088881;28;20046;-68
2023/02/11 11:53:29;;;;;;;15.98;14.40;;;;;;;7.21;100.00;102883.19;10111519;28;20047;-68
2023/02/11 11:58:28;;;;;;;18.38;14.15;;;;;;;7.15;100.00;102895.03;10100973;28;20121;-68
2023/02/11 12:03:51;;;;;;;18.77;15.15;;;;;;;7.23;100.00;102877.50;10108093;28;20143;-68
2023/02/11 12:09:08;;;;;;;27.13;15.77;;;;;;;7.24;100.00;102882.72;10083674;28;20444;-68
2023/02/11 12:14:33;;;;;;;28.88;16.13;;;;;;;7.21;100.00;102894.06;10101309;28;20043;-68
2023/02/11 12:19:49;;;;;;;18.02;15.10;;;;;;;7.21;100.00;102909.56;10093549;28;20082;-67
2023/02/11 12:24:57;;;;;;;14.77;13.23;;;;;;;7.22;100.00;102905.75;10092238;28;20134;-68
2023/02/11 12:30:07;;;;;;;20.75;14.55;;;;;;;7.23;100.00;102897.38;10092932;28;20050;-68
2023/02/11 12:35:46;;;;;;;16.55;13.43;;;;;;;7.28;100.00;102910.25;10097046;28;20054;-68
2023/02/11 12:41:14;;;;;;;22.88;13.52;;;;;;;7.23;100.00;102902.00;10102448;28;20592;-68
2023/02/11 12:46:33;;;;;;;18.90;14.23;;;;;;;7.27;100.00;102909.44;10099136;28;20862;-68
2023/02/11 12:51:38;;;;;;;14.05;12.43;;;;;;;7.17;100.00;102909.22;10100570;28;20475;-68
2023/02/11 12:56:43;;;;;;;19.65;13.88;;;;;;;7.22;100.00;102901.16;10093975;28;20051;-68
2023/02/11 13:01:43;;;;;;;16.50;12.32;;;;;;;7.25;100.00;102897.13;10092687;28;20770;-68
2023/02/11 13:06:45;;;;;;;21.17;13.50;;;;;;;7.28;100.00;102900.19;10100074;28;20043;-69
2023/02/11 13:11:50;;;;;;;20.05;15.57;;;;;;;7.29;100.00;102899.13;10094284;28;21562;-68
2023/02/11 13:16:49;;;;;;;21.88;14.10;;;;;;;7.26;100.00;102896.06;10096701;28;20050;-68
2023/02/11 13:22:13;;;;;;;18.38;13.82;;;;;;;7.21;100.00;102888.63;10095973;28;20394;-68
2023/02/11 13:27:25;;;;;;;19.27;13.50;;;;;;;7.26;100.00;102886.00;10090789;28;20599;-67
2023/02/11 13:32:21;;;;;;;17.63;14.52;;;;;;;7.18;100.00;102880.94;10087978;28;20067;-68
2023/02/11 13:37:22;;;;;;;21.08;13.95;;;;;;;7.17;100.00;102906.47;10100909;28;20051;-68
2023/02/11 13:42:19;;;;;;;26.67;14.73;;;;;;;7.22;100.00;102913.94;10100080;28;20483;-69
2023/02/11 13:47:29;;;;;;;22.77;14.95;;;;;;;7.29;100.00;102899.13;10107568;28;20051;-69
2023/02/11 13:52:30;;;;;;;20.67;15.45;;;;;;;7.27;100.00;102893.09;10104584;28;20165;-68
2023/02/11 13:57:31;;;;;;;35.58;17.25;;;;;;;7.21;100.00;102910.38;10106434;28;20054;-69
2023/02/11 14:13:52;;;;;;;;;;;;;;;7.25;100.00;102932.50;10092944;28;20047;-69
2023/02/11 14:18:54;;;;;;;25.73;14.90;;;;;;;7.27;100.00;102936.63;10092733;28;20037;-69
2023/02/11 14:23:55;;;;;;;20.95;13.45;;;;;;;7.30;100.00;102957.09;10092149;28;20043;-69
2023/02/11 14:29:20;;;;;;;23.08;14.27;;;;;;;7.25;100.00;102955.09;10103287;28;20571;-68
2023/02/11 14:34:35;;;;;;;22.52;13.07;;;;;;;7.21;100.00;102964.81;10091888;28;20131;-68
2023/02/11 14:39:53;;;;;;;31.90;14.40;;;;;;;7.21;100.00;102975.69;10105322;28;20073;-68
2023/02/11 14:44:53;;;;;;;27.08;14.13;;;;;;;7.21;100.00;102981.13;10104177;28;20066;-68
2023/02/11 14:49:50;;;;;;;23.73;14.23;;;;;;;7.27;100.00;102980.19;10100512;28;20062;-68
2023/02/11 14:54:49;;;;;;;21.73;14.18;;;;;;;7.25;100.00;102998.63;10103139;28;20043;-68
2023/02/11 15:00:03;;;;;;;20.35;13.80;;;;;;;7.18;100.00;103025.16;10107734;28;20577;-68
2023/02/11 15:05:13;;;;;;;24.25;13.93;;;;;;;7.03;100.00;103025.66;10110755;28;21007;-68
2023/02/11 15:10:20;;;;;;;22.38;13.63;;;;;;;7.02;100.00;103032.13;10085171;28;20138;-68
2023/02/11 15:15:16;;;;;;;16.65;13.15;;;;;;;6.89;100.00;103041.38;10095117;28;20073;-68
2023/02/11 15:20:24;;;;;;;20.60;13.85;;;;;;;6.83;100.00;103036.88;10105310;28;20073;-68
2023/02/11 15:25:22;;;;;;;18.38;12.52;;;;;;;6.80;100.00;103037.34;10106243;28;20593;-68
2023/02/11 15:30:21;;;;;;;15.25;13.80;;;;;;;6.75;100.00;103042.63;10096965;28;20054;-68
2023/02/11 15:35:18;;;;;;;16.35;14.38;;;;;;;6.70;100.00;103048.78;10105791;28;20089;-68
2023/02/11 15:40:22;;;;;;;24.42;14.40;;;;;;;6.65;100.00;103036.97;10092265;28;20466;-68
2023/02/11 15:45:19;;;;;;;17.55;14.73;;;;;;;6.60;100.00;103040.38;10102691;28;20138;-68
2023/02/11 15:50:24;;;;;;;27.15;15.48;;;;;;;6.61;100.00;103031.16;10095805;28;20047;-68
2023/02/11 15:55:21;;;;;;;27.42;14.98;;;;;;;6.63;100.00;103044.53;10095112;28;20055;-67
2023/02/11 16:00:21;;;;;;;34.63;17.30;;;;;;;6.60;100.00;103055.88;10093994;28;20478;-68
2023/02/11 16:05:26;;;;;;;28.65;16.05;;;;;;;6.63;100.00;103071.72;10087212;28;20054;-68
2023/02/11 16:10:25;;;;;;;25.15;16.88;;;;;;;6.61;100.00;103068.41;10105369;28;20137;-68
2023/02/11 16:15:33;;;;;;;25.60;17.88;;;;;;;6.64;100.00;103067.94;10095460;28;20039;-67
2023/02/11 16:20:30;;;;;;;26.88;18.25;;;;;;;6.62;100.00;103075.50;10087298;28;20717;-68
2023/02/11 16:25:27;;;;;;;28.13;18.48;;;;;;;6.63;100.00;103083.41;10099767;28;20065;-68
2023/02/11 16:30:36;;;;;;;25.20;16.27;;;;;;;6.57;100.00;103106.09;10093009;28;20061;-68
2023/02/11 16:35:32;;;;;;;20.92;15.50;;;;;;;6.52;100.00;103095.94;10095235;28;20051;-68
2023/02/11 16:40:29;;;;;;;22.13;14.65;;;;;;;6.53;100.00;103113.06;10099286;28;20065;-68
2023/02/11 16:45:25;;;;;;;26.77;17.25;;;;;;;6.52;100.00;103125.81;10092607;28;20623;-69
2023/02/11 16:50:24;;;;;;;26.15;14.50;;;;;;;6.46;100.00;103125.91;10090313;28;20055;-68
2023/02/11 16:55:20;;;;;;;24.40;17.30;;;;;;;6.48;100.00;103140.09;10086658;28;20063;-68
2023/02/11 17:00:18;;;;;;;36.17;19.70;;;;;;;6.52;100.00;103155.72;10097945;28;20494;-68
2023/02/11 17:05:18;;;;;;;35.70;21.92;;;;;;;6.50;100.00;103146.16;10098428;28;20046;-69
2023/02/11 17:10:17;;;;;;;42.58;22.70;;;;;;;6.44;100.00;103150.59;10094600;28;20149;-68
2023/02/11 17:15:14;;;;;;;32.47;24.23;;;;;;;6.44;100.00;103156.03;10102831;28;20053;-68
2023/02/11 17:20:12;;;;;;;47.95;24.83;;;;;;;6.49;100.00;103168.94;10101608;28;20142;-68
2023/02/11 17:25:09;;;;;;;32.97;23.10;;;;;;;6.44;100.00;103169.63;10099253;28;20555;-69
2023/02/11 17:30:06;;;;;;;28.48;23.00;;;;;;;6.48;100.00;103176.25;10092298;28;20079;-68
2023/02/11 17:35:05;;;;;;;30.83;19.73;;;;;;;6.41;100.00;103205.41;10082223;28;20137;-68
2023/02/11 17:40:02;;;;;;;28.30;18.08;;;;;;;6.38;100.00;103186.00;10092386;28;22190;-68
2023/02/11 17:44:58;;;;;;;26.48;20.48;;;;;;;6.38;100.00;103194.97;10094673;28;20053;-68
2023/02/11 17:49:55;;;;;;;33.60;20.80;;;;;;;6.34;100.00;103188.38;10087871;28;20150;-68
2023/02/11 17:54:51;;;;;;;31.75;22.33;;;;;;;6.41;100.00;103189.13;10083464;28;20063;-68
2023/02/11 17:59:47;;;;;;;33.40;22.55;;;;;;;6.35;100.00;103195.44;10091849;28;20047;-68
2023/02/11 18:04:44;;;;;;;35.80;23.42;;;;;;;6.38;100.00;103205.84;10089072;28;20560;-68
2023/02/11 18:09:41;;;;;;;31.88;25.70;;;;;;;6.39;100.00;103212.97;10089904;28;20051;-68
2023/02/11 18:14:39;;;;;;;35.42;26.13;;;;;;;6.39;100.00;103210.25;10088541;28;20061;-68
2023/02/11 18:19:36;;;;;;;45.55;25.85;;;;;;;6.39;100.00;103226.56;10097495;28;20074;-67
2023/02/11 18:24:32;;;;;;;48.60;30.15;;;;;;;6.46;100.00;103235.44;10105783;28;20420;-68
2023/02/11 18:29:29;;;;;;;40.38;25.50;;;;;;;6.41;100.00;103254.34;10083160;28;20062;-68
2023/02/11 18:34:26;;;;;;;42.47;26.17;;;;;;;6.46;100.00;103246.31;10096214;28;20134;-69
2023/02/11 18:39:23;;;;;;;40.13;24.95;;;;;;;6.49;100.00;103251.28;10096993;28;20102;-68
2023/02/11 18:44:22;;;;;;;45.20;26.00;;;;;;;6.52;100.00;103264.44;10098595;28;20521;-68
2023/02/11 18:49:19;;;;;;;35.72;22.85;;;;;;;6.48;100.00;103271.38;10098867;28;20086;-68
2023/02/11 18:54:16;;;;;;;41.72;25.10;;;;;;;6.53;100.00;103263.38;10102052;28;20469;-69
2023/02/11 18:59:12;;;;;;;33.03;23.35;;;;;;;6.57;100.00;103262.91;10094616;28;20130;-68
2023/02/11 19:04:09;;;;;;;47.15;25.13;;;;;;;6.57;100.00;103279.22;10095052;28;20079;-68
2023/02/11 19:09:08;;;;;;;56.90;27.70;;;;;;;6.51;100.00;103295.38;10096848;28;20053;-68
2023/02/11 19:14:09;;;;;;;32.15;20.23;;;;;;;6.62;100.00;103292.97;10091096;28;20622;-69
2023/02/11 19:19:05;;;;;;;34.72;22.20;;;;;;;6.57;100.00;103295.53;10106309;28;20090;-69
2023/02/11 19:24:06;;;;;;;33.67;20.10;;;;;;;6.53;100.00;103296.00;10103124;28;20585;-69
2023/02/11 19:29:04;;;;;;;38.33;20.83;;;;;;;6.51;100.00;103276.34;10099741;28;20046;-69
2023/02/11 19:34:02;;;;;;;36.42;21.88;;;;;;;6.55;100.00;103284.09;10093677;28;20732;-69
2023/02/11 19:38:59;;;;;;;45.30;24.15;;;;;;;6.57;100.00;103290.09;10095900;28;20047;-68
2023/02/11 19:43:56;;;;;;;36.67;23.60;;;;;;;6.58;100.00;103286.34;10106613;28;20134;-68
2023/02/11 19:48:53;;;;;;;32.72;20.75;;;;;;;6.53;100.00;103287.84;10101721;28;20098;-69
2023/02/11 19:53:50;;;;;;;37.03;21.13;;;;;;;6.56;100.00;103266.69;10099796;28;20086;-70
2023/02/11 19:58:46;;;;;;;36.70;20.23;;;;;;;6.59;100.00;103266.22;10101328;28;20091;-68
2023/02/11 20:03:43;;;;;;;30.55;19.17;;;;;;;6.60;100.00;103289.66;10102974;28;20055;-68
2023/02/11 20:08:40;;;;;;;31.10;21.92;;;;;;;6.66;100.00;103296.88;10092478;28;20080;-69
2023/02/11 20:13:38;;;;;;;38.70;22.40;;;;;;;6.73;100.00;103294.94;10090593;28;20078;-69
2023/02/11 20:18:35;;;;;;;30.05;20.67;;;;;;;6.68;100.00;103294.75;10091924;28;20075;-69
2023/02/11 20:23:32;;;;;;;41.63;23.38;;;;;;;6.79;100.00;103321.19;10100711;28;20054;-69
2023/02/11 20:28:28;;;;;;;39.30;24.00;;;;;;;6.79;100.00;103323.91;10102088;28;20063;-67
2023/02/11 20:33:27;;;;;;;32.75;24.45;;;;;;;6.88;100.00;103327.97;10090257;28;20046;-68
2023/02/11 20:38:24;;;;;;;35.40;23.38;;;;;;;6.83;100.00;103338.72;10103238;28;20089;-68
2023/02/11 20:43:21;;;;;;;40.22;27.92;;;;;;;6.87;100.00;103339.94;10096909;28;20054;-68
2023/02/11 20:48:18;;;;;;;38.17;26.73;;;;;;;6.81;100.00;103335.41;10085107;28;20445;-69
2023/02/11 20:53:14;;;;;;;43.75;25.88;;;;;;;6.72;100.00;103337.59;10084654;28;20083;-67
2023/02/11 20:58:11;;;;;;;45.83;26.48;;;;;;;6.69;100.00;103332.63;10102572;28;20051;-68
2023/02/11 21:03:07;;;;;;;41.92;25.92;;;;;;;6.70;100.00;103339.69;10093069;28;20054;-69
2023/02/11 21:08:04;;;;;;;43.47;26.60;;;;;;;6.67;100.00;103344.78;10098157;28;20134;-68
2023/02/11 21:13:01;;;;;;;44.55;24.73;;;;;;;6.62;100.00;103350.06;10084523;28;20057;-68
2023/02/11 21:17:58;;;;;;;51.80;26.30;;;;;;;6.57;100.00;103355.34;10102028;28;20047;-68
2023/02/11 21:22:54;;;;;;;49.65;26.70;;;;;;;6.48;100.00;103357.53;10097085;28;20192;-67
2023/02/11 21:27:51;;;;;;;48.85;23.85;;;;;;;6.49;100.00;103380.94;10097011;28;20117;-68
2023/02/11 21:32:47;;;;;;;50.20;26.70;;;;;;;6.54;100.00;103386.53;10093041;28;20050;-68
2023/02/11 21:37:44;;;;;;;53.08;29.98;;;;;;;6.58;100.00;103403.22;10076893;28;20340;-68
2023/02/11 21:42:40;;;;;;;47.22;27.75;;;;;;;6.63;100.00;103403.38;10081801;28;20062;-68
2023/02/11 21:47:37;;;;;;;41.03;27.02;;;;;;;6.63;100.00;103406.91;10089176;28;20502;-69
2023/02/11 21:52:33;;;;;;;54.60;31.65;;;;;;;6.51;100.00;103416.88;10095198;28;20074;-67
2023/02/11 21:57:30;;;;;;;58.22;31.77;;;;;;;6.47;100.00;103411.03;10098822;28;20054;-67
2023/02/11 22:02:26;;;;;;;45.78;26.98;;;;;;;6.37;100.00;103421.59;10104333;28;20586;-66
2023/02/11 22:07:23;;;;;;;38.83;26.02;;;;;;;6.39;100.00;103427.66;10101424;28;20055;-66
2023/02/11 22:12:21;;;;;;;47.25;24.85;;;;;;;6.38;100.00;103417.81;10098469;28;20054;-66
2023/02/11 22:17:17;;;;;;;48.10;26.63;;;;;;;6.49;100.00;103430.69;10095078;28;20054;-66
2023/02/11 22:22:17;;;;;;;38.00;23.35;;;;;;;6.39;100.00;103435.81;10096737;28;20141;-65
2023/02/11 22:27:15;;;;;;;35.63;22.52;;;;;;;6.41;100.00;103441.84;10102651;28;20959;-66
2023/02/11 22:32:16;;;;;;;34.40;24.08;;;;;;;6.39;100.00;103452.13;10094841;28;20051;-66
2023/02/11 22:37:13;;;;;;;33.88;21.98;;;;;;;6.36;100.00;103449.84;10088391;28;20081;-67
2023/02/11 22:42:10;;;;;;;34.38;21.20;;;;;;;6.30;100.00;103453.44;10087864;28;20486;-67
2023/02/11 22:47:06;;;;;;;31.00;21.20;;;;;;;6.22;100.00;103453.72;10100413;28;20089;-68